Time;durP1;ratioP1;P1;durP2;ratioP2;P2;SDS_P1;SDS_P2;PMS_P1;PMS_P2;Temp;Humidity;BMP_temperature;BMP_pressure;BME280_temperature;BME280_humidity;BME280_pressure;Samples;Min_cycle;Max_cycle;Signal;HPM_P1;HPM_P2
2022/11/08 00:01:34;;;;;;;19.73;10.93;;;17.60;92.20;;;18.57;57.47;99010.03;5051491;28;20044;-75
2022/11/08 00:04:09;;;;;;;21.33;10.80;;;17.70;92.10;;;18.61;57.27;99016.53;5054352;28;20056;-75
2022/11/08 00:14:50;;;;;;;19.40;10.68;;;17.70;92.10;;;18.63;57.69;99025.25;5050502;28;20037;-75
2022/11/08 00:17:17;;;;;;;17.98;10.88;;;17.70;92.10;;;18.65;57.19;99015.56;5067211;28;20051;-75
2022/11/08 00:19:43;;;;;;;19.55;10.70;;;17.70;92.10;;;18.69;57.15;99012.97;5017857;28;20044;-75
2022/11/08 00:22:10;;;;;;;17.67;10.15;;;17.70;92.10;;;18.64;57.44;99010.38;5046244;28;20049;-75
2022/11/08 00:24:36;;;;;;;17.70;10.32;;;17.70;92.20;;;18.70;57.48;99008.28;5031939;28;20049;-75
2022/11/08 00:27:03;;;;;;;22.45;10.65;;;17.70;92.20;;;18.72;57.13;99012.31;5015890;28;20047;-75
2022/11/08 00:29:29;;;;;;;15.48;10.10;;;17.70;92.20;;;18.71;57.21;99007.97;5049022;28;20664;-75
2022/11/08 00:31:55;;;;;;;16.33;10.40;;;17.70;92.20;;;18.75;57.11;99005.38;5034079;28;20044;-75
2022/11/08 00:34:22;;;;;;;29.90;13.27;;;17.80;92.20;;;18.71;57.28;99005.22;5036779;28;20056;-75
2022/11/08 00:36:48;;;;;;;16.75;9.90;;;17.80;92.20;;;18.77;57.03;99009.44;5039903;28;20041;-75
2022/11/08 00:39:14;;;;;;;18.67;10.15;;;17.80;92.20;;;18.75;57.39;99011.72;5057713;28;20051;-75
2022/11/08 00:41:40;;;;;;;18.67;9.65;;;17.80;92.20;;;18.76;57.23;99007.03;5022219;28;20094;-75
2022/11/08 00:44:06;;;;;;;19.23;11.63;;;17.80;92.20;;;18.84;56.87;99008.97;5033684;28;20045;-75
2022/11/08 00:46:32;;;;;;;17.55;11.05;;;17.80;92.20;;;18.70;57.39;99011.84;5053762;28;20080;-76
2022/11/08 00:48:59;;;;;;;20.00;11.55;;;17.80;92.10;;;18.74;57.25;99004.56;5054650;28;20048;-75
2022/11/08 00:51:25;;;;;;;17.67;9.88;;;17.80;92.10;;;18.74;57.41;99010.06;5058713;28;20404;-76
2022/11/08 00:53:52;;;;;;;16.05;9.57;;;17.80;92.10;;;18.81;57.07;99010.41;5055047;28;20444;-75
2022/11/08 00:56:18;;;;;;;13.95;9.68;;;17.80;92.20;;;18.83;57.06;99018.34;5044042;28;20045;-75
2022/11/08 00:58:44;;;;;;;15.95;9.13;;;17.80;92.20;;;18.81;57.39;99013.16;5051259;28;20040;-76
2022/11/08 01:01:13;;;;;;;16.77;10.32;;;17.80;92.20;;;18.78;57.31;99011.06;5054858;28;20413;-76
2022/11/08 01:03:39;;;;;;;16.80;9.70;;;17.90;92.20;;;18.77;57.24;99008.63;5041295;28;20044;-76
2022/11/08 01:06:06;;;;;;;17.80;10.18;;;17.80;92.20;;;18.73;57.31;99010.41;5057860;28;20080;-75
2022/11/08 01:08:32;;;;;;;15.93;9.90;;;17.80;92.20;;;18.86;56.79;99015.75;5055798;28;20051;-75
2022/11/08 01:11:02;;;;;;;19.38;10.13;;;17.80;92.20;;;18.81;57.21;99015.91;5063453;28;20040;-75
2022/11/08 01:13:28;;;;;;;16.33;9.50;;;17.90;92.20;;;18.83;57.16;99013.66;5037342;28;20066;-75
2022/11/08 01:15:54;;;;;;;15.63;10.18;;;17.90;92.10;;;18.83;56.91;99018.34;5038030;28;20090;-75
2022/11/08 01:18:21;;;;;;;18.67;10.52;;;17.90;92.10;;;18.82;56.90;99011.22;5055364;28;20047;-75
2022/11/08 01:20:48;;;;;;;16.00;9.70;;;17.90;92.10;;;18.85;56.84;99014.16;5054161;28;20379;-75
2022/11/08 01:23:14;;;;;;;17.77;10.55;;;17.90;92.20;;;18.81;56.87;99009.63;5033403;28;20101;-75
2022/11/08 01:25:43;;;;;;;20.83;10.90;;;17.90;92.10;;;18.85;57.02;99014.16;5013732;28;20462;-75
2022/11/08 01:28:10;;;;;;;20.77;10.45;;;17.90;92.10;;;18.85;56.87;99008.66;5021214;28;20115;-75
2022/11/08 01:30:37;;;;;;;20.30;10.38;;;17.90;92.10;;;18.90;56.80;99012.34;5036049;28;20044;-75
2022/11/08 01:33:04;;;;;;;14.52;9.60;;;17.90;92.20;;;18.81;57.00;99009.63;5041465;28;20048;-75
2022/11/08 01:35:31;;;;;;;16.08;10.90;;;17.90;92.20;;;18.81;56.98;99012.38;5037812;28;20440;-76
2022/11/08 01:37:58;;;;;;;19.77;11.13;;;17.90;92.10;;;18.84;56.87;99007.03;5036324;28;20036;-75
2022/11/08 01:40:25;;;;;;;17.20;9.05;;;17.90;92.10;;;18.86;57.04;99004.75;5057509;28;20048;-75
2022/11/08 01:42:52;;;;;;;17.13;9.98;;;17.90;92.10;;;18.80;56.99;99003.31;5019033;28;20044;-75
2022/11/08 01:46:08;;;;;;;19.73;10.30;;;17.90;92.10;;;18.90;56.64;99004.09;5062965;28;20966;-75
2022/11/08 01:48:35;;;;;;;17.52;11.07;;;17.90;92.10;;;18.83;56.90;99005.41;5065306;28;20037;-75
2022/11/08 01:51:01;;;;;;;21.40;11.45;;;17.90;92.20;;;18.84;56.55;99007.03;5035281;28;20400;-75
2022/11/08 01:53:27;;;;;;;16.00;10.75;;;17.80;92.10;;;18.82;56.99;99002.97;5051514;28;20045;-75
2022/11/08 01:55:53;;;;;;;16.58;10.93;;;17.90;92.10;;;18.78;57.12;99002.84;5057477;28;20048;-75
2022/11/08 01:58:22;;;;;;;18.42;10.93;;;17.90;92.00;;;18.81;56.87;98999.44;5023616;28;20047;-75
2022/11/08 02:00:48;;;;;;;16.50;11.25;;;17.90;92.10;;;18.84;56.96;99003.47;5037876;28;20472;-75
2022/11/08 02:03:15;;;;;;;17.10;10.63;;;17.90;92.10;;;18.83;57.19;99002.66;5051309;28;20044;-75
2022/11/08 02:05:41;;;;;;;17.70;10.57;;;17.90;92.20;;;18.84;56.82;98997.97;5015081;28;20040;-75
2022/11/08 02:08:15;;;;;;;14.85;10.15;;;17.90;92.10;;;18.83;56.72;98999.13;5064995;28;20110;-75
2022/11/08 02:10:43;;;;;;;17.02;9.63;;;17.90;92.10;;;18.79;56.87;98990.69;5052521;28;20622;-75
2022/11/08 02:13:22;;;;;;;14.80;9.77;;;17.90;92.00;;;18.82;56.66;98994.72;5051395;28;20044;-75
2022/11/08 02:15:48;;;;;;;15.13;9.50;;;17.90;92.00;;;18.77;57.11;98981.97;5052820;28;20109;-75
2022/11/08 02:18:14;;;;;;;17.67;10.50;;;17.90;92.10;;;18.80;57.13;98986.84;5065411;28;20040;-75
2022/11/08 02:21:10;;;;;;;15.35;10.07;;;17.90;92.10;;;18.79;57.02;98996.19;5037853;28;20044;-75
2022/11/08 02:23:56;;;;;;;20.38;10.98;;;17.90;92.10;;;18.86;56.65;98992.97;5009317;28;20056;-75
2022/11/08 02:26:30;;;;;;;18.45;11.55;;;17.90;92.00;;;18.81;56.72;98996.69;5042684;28;20044;-75
2022/11/08 02:28:56;;;;;;;15.07;10.05;;;17.90;91.90;;;18.79;56.59;98990.69;5045182;28;20522;-75
2022/11/08 02:31:22;;;;;;;17.80;10.60;;;17.90;91.90;;;18.76;57.02;98991.34;5022521;28;20091;-75
2022/11/08 02:33:48;;;;;;;18.58;9.80;;;17.90;92.10;;;18.79;57.01;98990.69;5040583;28;20037;-75
2022/11/08 02:36:23;;;;;;;17.75;11.30;;;17.90;92.10;;;18.75;57.11;98984.25;5050800;28;20607;-75
2022/11/08 02:38:54;;;;;;;18.58;11.10;;;17.90;92.00;;;18.81;56.68;98988.44;5039289;28;20384;-75
2022/11/08 02:41:21;;;;;;;17.15;10.43;;;17.90;92.10;;;18.81;56.59;98988.44;5036363;28;20040;-75
2022/11/08 02:43:47;;;;;;;18.33;9.77;;;17.90;92.00;;;18.84;56.48;98990.53;5034913;28;20051;-75
2022/11/08 02:46:13;;;;;;;19.40;10.35;;;17.90;91.90;;;18.82;56.43;98990.03;5054738;28;20040;-75
2022/11/08 02:48:39;;;;;;;17.10;10.95;;;17.90;91.90;;;18.77;56.79;98989.41;5036715;28;20590;-75
2022/11/08 02:51:05;;;;;;;17.67;10.50;;;17.90;92.00;;;18.78;56.86;98989.09;5047002;28;20049;-75
2022/11/08 02:53:31;;;;;;;13.75;9.23;;;17.90;92.00;;;18.78;56.81;98988.28;5067913;28;20045;-75
2022/11/08 02:55:58;;;;;;;18.30;10.63;;;17.90;92.00;;;18.81;56.46;98993.13;5042473;28;20036;-75
2022/11/08 02:58:24;;;;;;;17.77;9.60;;;17.90;91.90;;;18.77;56.58;98992.94;5040563;28;20140;-75
2022/11/08 03:00:50;;;;;;;18.10;9.65;;;17.90;91.90;;;18.80;56.55;98995.06;5034105;28;20058;-75
2022/11/08 03:03:16;;;;;;;16.83;9.50;;;17.90;91.90;;;18.71;56.92;98991.47;5052510;28;20553;-75
2022/11/08 03:05:42;;;;;;;21.33;10.25;;;17.90;91.90;;;18.76;56.67;98985.84;5062907;28;20036;-75
2022/11/08 03:08:08;;;;;;;19.58;10.77;;;17.90;91.90;;;18.79;56.88;98987.94;5030228;28;20052;-75
2022/11/08 03:10:34;;;;;;;16.58;10.50;;;17.90;91.90;;;18.80;56.50;98992.31;5039209;28;20036;-75
2022/11/08 03:13:02;;;;;;;16.25;10.45;;;17.90;91.80;;;18.80;56.40;98997.00;5046797;28;20486;-75
2022/11/08 03:15:28;;;;;;;17.50;10.45;;;18.00;91.90;;;18.78;56.25;98991.84;5019150;28;20052;-75
2022/11/08 03:17:55;;;;;;;20.02;11.70;;;17.90;91.80;;;18.75;56.62;98987.00;5024641;28;20037;-75
2022/11/08 03:20:21;;;;;;;19.75;11.75;;;17.90;91.80;;;18.81;56.35;98987.63;5051376;28;20090;-75
2022/11/08 03:22:47;;;;;;;19.00;10.65;;;17.90;91.80;;;18.75;56.56;98991.63;5034274;28;20048;-75
2022/11/08 03:25:13;;;;;;;16.73;10.48;;;17.90;91.90;;;18.78;56.31;98988.28;5031341;28;20585;-75
2022/11/08 03:27:40;;;;;;;16.45;10.70;;;18.00;91.80;;;18.77;56.39;98995.69;5021813;28;20037;-75
2022/11/08 03:30:07;;;;;;;21.92;12.23;;;18.00;91.60;;;18.75;56.43;98989.75;5041638;28;20041;-75
2022/11/08 03:32:33;;;;;;;18.65;10.88;;;18.00;91.60;;;18.75;56.34;98989.75;5061806;28;20037;-75
2022/11/08 03:34:59;;;;;;;16.17;9.82;;;17.90;91.60;;;18.75;56.35;98988.88;5033785;28;20431;-75
2022/11/08 03:37:25;;;;;;;17.98;10.20;;;17.90;91.70;;;18.76;56.59;98998.78;5028927;28;20040;-75
2022/11/08 03:39:52;;;;;;;15.82;10.52;;;17.90;91.90;;;18.73;56.51;98997.47;5034857;28;20100;-75
2022/11/08 03:42:18;;;;;;;14.05;9.95;;;17.90;91.80;;;18.72;56.36;98982.09;5051033;28;20047;-75
2022/11/08 03:44:44;;;;;;;14.60;9.93;;;17.90;91.70;;;18.72;56.17;98986.78;5039619;28;20742;-75
2022/11/08 03:47:10;;;;;;;18.27;10.32;;;17.90;91.70;;;18.75;56.00;98989.75;5027550;28;20051;-75
2022/11/08 03:49:36;;;;;;;17.73;10.63;;;17.90;91.60;;;18.74;56.29;98990.03;5062232;28;20036;-75
2022/11/08 03:52:02;;;;;;;15.55;10.85;;;18.00;91.60;;;18.68;56.26;98996.81;5040324;28;20048;-75
2022/11/08 03:54:28;;;;;;;17.00;11.05;;;17.90;91.60;;;18.72;56.04;98989.53;5052562;28;20040;-75
2022/11/08 03:56:54;;;;;;;15.57;9.90;;;17.90;91.60;;;18.70;55.98;98995.38;5048487;28;20037;-75
2022/11/08 03:59:20;;;;;;;15.90;10.65;;;17.90;91.60;;;18.64;55.79;98991.16;5049230;28;20048;-75
2022/11/08 04:01:46;;;;;;;15.77;9.15;;;17.90;91.40;;;18.71;55.73;98993.41;5052023;28;20423;-74
2022/11/08 04:04:13;;;;;;;18.50;10.82;;;17.90;91.60;;;18.70;55.81;99000.03;5065213;28;20369;-75
2022/11/08 04:06:39;;;;;;;17.02;10.82;;;17.90;91.60;;;18.71;56.00;98999.72;5021400;28;20101;-75
2022/11/08 04:09:05;;;;;;;14.25;9.65;;;17.90;91.60;;;18.63;55.93;99000.53;5051586;28;20045;-75
2022/11/08 04:17:01;;;;;;;14.80;9.35;;;17.80;91.40;;;18.62;55.65;99007.13;5066725;28;20045;-75
2022/11/08 04:22:12;;;;;;;14.52;10.40;;;17.90;91.40;;;18.67;55.64;99004.22;5038663;28;20163;-75
2022/11/08 04:24:38;;;;;;;12.73;9.43;;;17.90;91.50;;;18.66;55.66;98999.88;5023478;28;20049;-75
2022/11/08 04:27:04;;;;;;;18.30;10.73;;;17.80;91.50;;;18.63;55.53;98995.03;5038828;28;20561;-75
2022/11/08 04:29:30;;;;;;;12.30;9.57;;;17.90;91.30;;;18.60;55.27;98993.75;5057312;28;20048;-75
2022/11/08 04:31:56;;;;;;;15.80;10.48;;;17.80;91.30;;;18.55;55.34;98991.16;5051491;28;20048;-75
2022/11/08 04:34:23;;;;;;;14.00;9.38;;;17.80;91.30;;;18.56;55.51;98984.50;5055952;28;20049;-75
2022/11/08 04:36:48;;;;;;;15.70;10.73;;;17.80;91.20;;;18.61;55.49;98987.09;5040942;28;20560;-75
2022/11/08 04:39:15;;;;;;;15.00;9.60;;;17.80;91.40;;;18.58;55.68;98986.94;5054194;28;20037;-75
2022/11/08 04:41:41;;;;;;;13.90;9.07;;;17.80;91.50;;;18.66;55.39;98980.66;5070408;28;20071;-75
2022/11/08 04:44:07;;;;;;;16.20;9.88;;;17.80;91.40;;;18.64;55.09;98978.22;5040890;28;20059;-75
2022/11/08 04:46:33;;;;;;;11.20;9.13;;;17.80;91.20;;;18.59;54.96;98978.38;5057801;28;20055;-75
2022/11/08 04:48:59;;;;;;;14.38;9.55;;;17.80;91.10;;;18.66;54.61;98975.94;5034280;28;20390;-75
2022/11/08 04:51:32;;;;;;;16.77;10.20;;;17.90;91.10;;;18.61;55.05;98978.84;5069684;28;20057;-75
2022/11/08 04:54:00;;;;;;;16.40;9.55;;;17.80;91.50;;;18.60;55.28;98971.75;5039145;28;20040;-75
2022/11/08 04:56:28;;;;;;;15.98;10.98;;;17.80;91.30;;;18.56;55.46;98969.97;5014890;28;20049;-75
2022/11/08 04:58:56;;;;;;;15.07;9.93;;;17.80;91.30;;;18.57;55.11;98968.84;5036148;28;20047;-75
2022/11/08 05:01:25;;;;;;;14.85;9.68;;;17.80;91.20;;;18.56;54.97;98967.22;5020915;28;20127;-75
2022/11/08 05:03:52;;;;;;;20.30;10.73;;;17.80;91.00;;;18.61;54.71;98967.06;5040919;28;20045;-75
2022/11/08 05:06:28;;;;;;;16.33;9.98;;;17.80;91.00;;;18.62;54.51;98974.16;5036898;28;20044;-75
2022/11/08 05:08:56;;;;;;;17.60;10.65;;;17.90;91.00;;;18.61;54.73;98967.88;5034330;28;20040;-75
2022/11/08 05:11:24;;;;;;;16.73;10.90;;;17.90;91.10;;;18.56;55.07;98967.22;5025950;28;20040;-75
2022/11/08 05:13:51;;;;;;;14.35;9.65;;;17.80;91.20;;;18.63;54.78;98960.13;5019699;28;20036;-75
2022/11/08 05:16:19;;;;;;;14.25;9.45;;;17.80;91.20;;;18.63;54.50;98968.34;5038198;28;20050;-75
2022/11/08 05:18:45;;;;;;;18.25;10.80;;;17.80;91.00;;;18.60;54.32;98965.47;5052352;28;20421;-75
2022/11/08 05:23:59;;;;;;;19.02;10.70;;;17.80;90.90;;;18.57;54.51;98966.09;5042706;28;20040;-75
2022/11/08 05:26:25;;;;;;;15.35;10.70;;;17.80;91.00;;;18.60;54.78;98965.47;5022456;28;20145;-75
2022/11/08 05:28:52;;;;;;;13.82;10.50;;;17.80;91.10;;;18.62;54.83;98966.75;5053926;28;20040;-75
2022/11/08 05:31:18;;;;;;;14.75;10.38;;;17.80;91.20;;;18.61;54.39;98969.81;5065467;28;20052;-75
2022/11/08 05:33:44;;;;;;;14.45;9.93;;;17.80;91.00;;;18.63;54.26;98967.56;5043691;28;20539;-75
2022/11/08 05:36:14;;;;;;;12.90;9.15;;;17.80;90.90;;;18.60;54.17;98974.50;5051517;28;20122;-75
2022/11/08 05:38:40;;;;;;;14.68;9.98;;;17.80;90.90;;;18.62;54.41;98975.00;5023861;28;20052;-75
2022/11/08 05:41:17;;;;;;;13.35;8.73;;;17.80;90.80;;;18.66;54.06;98980.66;5049509;28;20045;-74
2022/11/08 05:43:48;;;;;;;15.50;10.02;;;17.80;91.00;;;18.64;54.35;98983.72;5036114;28;20043;-75
2022/11/08 05:46:15;;;;;;;14.80;9.70;;;17.70;91.00;;;18.65;54.23;98984.53;5050190;28;20090;-75
2022/11/08 05:48:45;;;;;;;15.60;9.98;;;17.80;91.00;;;18.63;53.73;98986.78;5048089;28;20037;-75
2022/11/08 05:51:12;;;;;;;13.98;9.13;;;17.80;90.90;;;18.58;53.97;98987.75;5037912;28;20083;-75
2022/11/08 05:53:39;;;;;;;12.27;9.65;;;17.80;90.90;;;18.66;53.92;98989.69;5030187;28;20040;-75
2022/11/08 05:56:06;;;;;;;14.82;9.80;;;17.80;90.80;;;18.65;53.92;98993.59;5043583;28;20450;-74
2022/11/08 05:58:33;;;;;;;15.43;9.75;;;17.80;90.90;;;18.63;53.87;98995.84;5023037;28;20262;-79
2022/11/08 06:01:05;;;;;;;15.57;10.35;;;17.80;90.80;;;18.62;53.94;98991.47;5030973;28;20041;-78
2022/11/08 06:03:32;;;;;;;14.55;8.40;;;17.80;90.80;;;18.68;53.83;98989.38;5013187;28;20050;-77
2022/11/08 06:06:03;;;;;;;13.73;9.80;;;17.80;90.90;;;18.72;53.75;98995.03;5034833;28;20040;-79
2022/11/08 06:08:29;;;;;;;13.50;9.10;;;17.80;91.00;;;18.66;54.03;98997.13;5015024;28;20094;-78
2022/11/08 06:11:04;;;;;;;13.80;10.23;;;17.80;91.00;;;18.63;54.06;98995.03;5044673;28;20044;-78
2022/11/08 06:13:31;;;;;;;15.85;9.48;;;17.80;91.00;;;18.65;53.78;98990.03;5019795;28;20044;-78
2022/11/08 06:16:05;;;;;;;14.27;8.93;;;17.80;91.00;;;18.62;53.80;98996.97;5062118;28;20568;-79
2022/11/08 06:18:33;;;;;;;13.48;8.50;;;17.80;90.90;;;18.61;53.96;99003.59;5042798;28;20040;-77
2022/11/08 06:21:00;;;;;;;15.13;9.60;;;17.80;91.00;;;18.63;54.33;98997.78;5028702;28;20082;-80
2022/11/08 06:23:33;;;;;;;15.77;9.32;;;17.80;91.10;;;18.63;54.21;98995.03;5037295;28;20044;-79
2022/11/08 06:25:59;;;;;;;11.75;8.32;;;17.80;91.10;;;18.65;53.98;99006.50;5053868;28;20442;-80
2022/11/08 06:28:26;;;;;;;14.65;9.73;;;17.80;91.00;;;18.68;53.78;99003.13;5047816;28;20141;-80
2022/11/08 06:30:53;;;;;;;13.43;9.23;;;17.80;90.90;;;18.66;53.81;99008.13;5064700;28;20044;-80
2022/11/08 06:33:19;;;;;;;11.70;9.05;;;17.90;90.90;;;18.68;53.88;99010.56;5028263;28;20125;-80
2022/11/08 06:35:45;;;;;;;16.40;10.25;;;17.80;90.80;;;18.70;54.01;99006.34;5033330;28;20172;-80
2022/11/08 06:38:12;;;;;;;17.27;9.52;;;17.80;91.00;;;18.73;54.31;99013.16;5045805;28;20044;-80
2022/11/08 06:40:38;;;;;;;12.65;9.13;;;17.80;91.00;;;18.65;54.17;99012.00;5023967;28;20045;-81
2022/11/08 06:43:04;;;;;;;13.05;8.65;;;17.90;91.00;;;18.70;53.98;99017.34;5034724;28;20226;-81
2022/11/08 06:45:31;;;;;;;16.15;8.73;;;17.90;90.90;;;18.71;53.75;99015.41;5040965;28;20718;-81
2022/11/08 06:47:58;;;;;;;13.63;9.15;;;17.90;90.80;;;18.72;53.64;99017.81;5042158;28;20045;-81
2022/11/08 06:50:25;;;;;;;12.63;8.88;;;17.90;90.80;;;18.71;53.87;99021.69;5038453;28;20553;-81
2022/11/08 06:53:11;;;;;;;14.60;9.48;;;17.90;90.70;;;18.73;53.92;99018.66;5042417;28;20102;-81
2022/11/08 06:55:37;;;;;;;13.05;9.13;;;17.90;90.90;;;18.75;53.96;99014.47;5021706;28;20372;-81
2022/11/08 06:58:04;;;;;;;12.65;9.60;;;17.90;91.00;;;18.74;53.77;99017.50;5017380;28;20051;-80
2022/11/08 07:00:30;;;;;;;12.32;8.82;;;18.00;90.90;;;18.73;53.74;99019.44;5036125;28;20573;-80
2022/11/08 07:03:01;;;;;;;14.93;9.57;;;17.90;90.80;;;18.76;53.70;99024.31;5030393;28;20086;-80
2022/11/08 07:05:28;;;;;;;16.35;10.23;;;18.00;90.80;;;18.75;53.52;99019.09;5037377;28;20045;-81
2022/11/08 07:07:56;;;;;;;13.43;9.27;;;18.00;90.80;;;18.77;53.74;99017.69;5035079;28;20492;-81
2022/11/08 07:10:26;;;;;;;12.60;9.05;;;18.00;90.90;;;18.77;53.83;99019.63;5059753;28;20492;-80
2022/11/08 07:13:03;;;;;;;13.32;9.07;;;17.90;90.90;;;18.73;53.89;99024.94;5033116;28;20045;-80
2022/11/08 07:15:29;;;;;;;14.05;8.75;;;17.90;90.90;;;18.78;53.67;99019.31;5032829;28;20068;-80
2022/11/08 07:18:04;;;;;;;12.98;9.75;;;17.90;90.80;;;18.78;53.44;99024.81;5028677;28;20045;-80
2022/11/08 07:20:30;;;;;;;12.40;8.63;;;18.00;90.80;;;18.78;53.50;99027.56;5030762;28;20044;-81
2022/11/08 07:22:56;;;;;;;17.80;9.25;;;18.00;90.70;;;18.78;53.26;99026.75;5044596;28;20055;-80
2022/11/08 07:25:23;;;;;;;16.55;9.80;;;18.00;90.60;;;18.76;53.68;99021.56;5028840;28;20891;-81
2022/11/08 07:27:49;;;;;;;13.55;9.13;;;18.00;90.80;;;18.77;53.79;99019.63;5027468;28;20044;-81
2022/11/08 07:30:15;;;;;;;12.30;7.80;;;18.00;90.90;;;18.84;53.50;99020.75;5044003;28;20147;-81
2022/11/08 07:32:41;;;;;;;13.82;9.23;;;18.00;90.80;;;18.79;53.61;99018.19;5030571;28;20679;-80
2022/11/08 07:35:07;;;;;;;12.90;9.38;;;18.00;90.70;;;18.86;53.28;99024.00;5030985;28;20410;-81
2022/11/08 07:37:34;;;;;;;16.55;9.40;;;18.00;90.70;;;18.82;53.25;99020.28;5035652;28;20048;-81
2022/11/08 07:40:00;;;;;;;15.48;8.27;;;18.10;90.60;;;18.83;53.39;99019.16;5017077;28;20049;-81
2022/11/08 07:42:26;;;;;;;13.00;9.45;;;18.10;90.70;;;18.83;53.43;99019.16;5046543;28;20488;-81
2022/11/08 07:44:54;;;;;;;12.25;8.35;;;18.10;90.70;;;18.82;53.71;99023.03;5015099;28;20047;-81
2022/11/08 07:47:20;;;;;;;11.88;7.75;;;18.10;90.80;;;18.82;53.50;99022.22;5018497;28;20040;-81
2022/11/08 07:49:47;;;;;;;11.30;8.27;;;18.10;90.60;;;18.85;53.14;99022.41;5019150;28;20450;-81
2022/11/08 07:52:13;;;;;;;14.80;8.48;;;18.10;90.50;;;18.87;53.01;99024.81;5036374;28;20064;-81
2022/11/08 07:54:39;;;;;;;12.38;8.60;;;18.10;90.50;;;18.89;53.30;99016.25;5037683;28;20093;-81
2022/11/08 07:57:05;;;;;;;14.43;9.07;;;18.10;90.50;;;18.89;53.36;99017.06;5004305;28;20341;-81
2022/11/08 07:59:31;;;;;;;12.20;8.55;;;18.10;90.60;;;18.92;53.36;99016.41;5034633;28;20043;-81
2022/11/08 08:01:58;;;;;;;13.25;9.02;;;18.20;90.60;;;18.90;53.46;99017.84;5024117;28;20408;-81
2022/11/08 08:04:24;;;;;;;12.82;8.32;;;18.20;90.50;;;18.90;53.04;99009.59;5040945;28;20055;-81
2022/11/08 08:06:50;;;;;;;11.65;8.30;;;18.20;90.50;;;18.90;52.84;99017.84;5030292;28;20491;-81
2022/11/08 08:09:17;;;;;;;15.77;8.75;;;18.20;90.50;;;18.93;53.08;99012.53;5046787;28;20045;-81
2022/11/08 08:11:44;;;;;;;13.98;9.05;;;18.20;90.40;;;18.93;52.97;99009.78;5011201;28;20079;-81
2022/11/08 08:14:10;;;;;;;11.38;8.43;;;18.30;90.50;;;18.97;53.26;99009.94;5048719;28;20094;-81
2022/11/08 08:16:36;;;;;;;10.55;7.65;;;18.30;90.40;;;18.96;53.09;99005.59;5042410;28;20047;-81
2022/11/08 08:19:02;;;;;;;13.38;8.30;;;18.30;90.50;;;18.96;52.96;99016.56;5031395;28;20040;-81
2022/11/08 08:21:29;;;;;;;11.82;7.85;;;18.30;90.40;;;18.96;52.87;99016.56;5046442;28;20052;-81
2022/11/08 08:23:55;;;;;;;11.65;7.93;;;18.30;90.30;;;18.97;52.91;99009.94;5054816;28;20436;-81
2022/11/08 08:26:21;;;;;;;11.52;7.88;;;18.40;90.30;;;18.97;52.95;99005.25;5023917;28;20045;-81
2022/11/08 08:28:47;;;;;;;10.55;7.95;;;18.40;90.20;;;18.99;52.83;99002.19;5048894;28;20082;-81
2022/11/08 08:31:16;;;;;;;10.85;7.75;;;18.40;90.30;;;19.02;52.92;99007.03;5018625;28;20044;-81
2022/11/08 08:33:42;;;;;;;9.27;7.05;;;18.40;90.40;;;19.01;52.94;98997.97;5031013;28;20047;-81
2022/11/08 08:36:08;;;;;;;12.32;8.20;;;18.40;90.40;;;19.04;52.77;98999.25;5027517;28;20045;-81
2022/11/08 08:38:34;;;;;;;10.30;7.97;;;18.40;90.30;;;19.05;52.58;99000.88;5031342;28;20084;-81
2022/11/08 08:41:01;;;;;;;10.35;7.88;;;18.40;90.20;;;19.03;52.64;98994.88;5049142;28;20040;-81
2022/11/08 08:43:28;;;;;;;10.65;7.40;;;18.40;90.10;;;19.07;52.46;99001.34;5019209;28;20438;-81
2022/11/08 08:45:58;;;;;;;9.77;6.78;;;18.50;90.20;;;19.09;52.53;98999.09;5035009;28;20043;-81
2022/11/08 08:48:24;;;;;;;11.00;8.00;;;18.50;90.20;;;19.07;52.74;98998.59;5044603;28;20036;-81
2022/11/08 08:50:50;;;;;;;10.82;7.65;;;18.50;90.30;;;19.07;52.79;98999.41;5015263;28;20052;-81
2022/11/08 08:53:16;;;;;;;10.55;7.53;;;18.50;90.20;;;19.10;52.73;98995.19;5030389;28;20048;-81
2022/11/08 08:55:43;;;;;;;10.48;7.40;;;18.50;90.10;;;19.09;52.42;98999.09;5032910;28;20049;-81
2022/11/08 08:58:09;;;;;;;8.00;6.88;;;18.60;90.10;;;19.09;52.56;98993.59;4996546;28;20409;-81
2022/11/08 09:00:36;;;;;;;11.00;7.70;;;18.50;90.00;;;19.12;52.68;98992.13;5047601;28;20041;-81
2022/11/08 09:03:03;;;;;;;9.45;7.15;;;18.50;90.10;;;19.14;52.32;98996.19;5047253;28;20385;-81
2022/11/08 09:05:31;;;;;;;10.65;7.40;;;18.60;90.20;;;19.14;52.64;99003.63;5018709;28;20090;-81
2022/11/08 09:07:57;;;;;;;8.88;6.43;;;18.50;90.20;;;19.16;52.51;98993.91;5052214;28;20090;-81
2022/11/08 09:10:23;;;;;;;9.77;6.78;;;18.60;90.10;;;19.15;52.52;99002.47;5037750;28;20399;-81
2022/11/08 09:12:49;;;;;;;11.75;8.23;;;18.60;90.00;;;19.17;52.32;99000.22;5018036;28;20036;-81
2022/11/08 09:15:16;;;;;;;10.20;7.07;;;18.70;90.00;;;19.16;52.11;99004.91;5031200;28;20040;-81
2022/11/08 09:17:42;;;;;;;10.63;7.43;;;18.70;90.10;;;19.17;52.53;99003.78;5051448;28;20044;-81
2022/11/08 09:20:09;;;;;;;9.73;7.68;;;18.60;90.10;;;19.20;52.57;99003.13;5021420;28;20419;-81
2022/11/08 09:22:36;;;;;;;9.65;6.85;;;18.70;90.20;;;19.19;52.45;98996.00;5020493;28;20043;-81
2022/11/08 09:25:02;;;;;;;8.25;7.03;;;18.70;90.10;;;19.23;52.44;99001.66;5030289;28;20098;-81
2022/11/08 09:27:29;;;;;;;8.18;7.32;;;18.70;90.10;;;19.20;52.35;99000.38;5031069;28;20492;-81
2022/11/08 09:29:55;;;;;;;11.70;6.72;;;18.70;90.00;;;19.22;52.42;98998.09;5047489;28;20045;-81
2022/11/08 09:32:23;;;;;;;8.57;6.97;;;18.70;89.90;;;19.23;52.17;99005.22;5034900;28;20196;-81
2022/11/08 09:34:50;;;;;;;7.80;6.10;;;18.80;90.00;;;19.23;52.42;98999.72;5019709;28;20047;-81
2022/11/08 09:37:17;;;;;;;12.15;7.25;;;18.80;90.00;;;19.25;52.33;98996.63;5032329;28;20090;-81
2022/11/08 09:39:43;;;;;;;8.75;6.28;;;18.70;90.00;;;19.25;52.41;98994.69;5048590;28;20362;-81
2022/11/08 09:42:43;;;;;;;9.05;6.47;;;18.80;90.00;;;19.28;52.11;98996.81;5050275;28;20053;-81
2022/11/08 09:45:21;;;;;;;10.65;7.40;;;18.80;90.00;;;19.24;52.19;98995.84;5065400;28;20051;-81
2022/11/08 09:48:09;;;;;;;8.93;6.28;;;18.80;90.00;;;19.28;51.93;98999.56;5058526;28;20036;-81
2022/11/08 09:50:42;;;;;;;7.30;6.20;;;18.90;89.70;;;19.29;52.39;98995.66;5034204;28;20044;-81
2022/11/08 09:53:48;;;;;;;10.85;6.55;;;18.90;89.90;;;19.32;52.37;98987.91;5054121;28;20397;-81
2022/11/08 09:56:30;;;;;;;13.63;6.80;;;18.90;90.00;;;19.32;52.02;98990.66;5035241;28;20053;-81
2022/11/08 09:59:29;;;;;;;9.45;6.72;;;18.90;89.60;;;19.33;51.96;98987.56;5047974;28;20043;-81
2022/11/08 10:01:56;;;;;;;8.07;6.18;;;18.90;89.50;;;19.34;52.15;98985.63;5051844;28;20044;-81
2022/11/08 10:04:25;;;;;;;8.50;6.05;;;19.00;89.40;;;19.35;51.92;98981.75;5052443;28;20040;-81
2022/11/08 10:07:02;;;;;;;6.88;5.30;;;19.00;89.50;;;19.35;52.17;98974.28;5021714;28;20040;-81
2022/11/08 10:10:28;;;;;;;10.68;6.38;;;19.00;89.60;;;19.39;52.12;98978.00;5064003;28;20136;-81
2022/11/08 10:13:03;;;;;;;7.80;5.68;;;19.00;89.70;;;19.37;52.20;98974.78;5064272;28;20484;-81
2022/11/08 10:16:18;;;;;;;8.38;6.03;;;19.00;89.60;;;19.40;52.11;98976.88;5065408;28;20087;-81
2022/11/08 10:19:09;;;;;;;8.48;5.57;;;19.00;89.20;;;19.40;51.98;98970.56;5066691;28;20083;-81
2022/11/08 10:21:59;;;;;;;10.45;6.95;;;19.00;89.40;;;19.37;51.97;98966.53;5036094;28;20044;-81
2022/11/08 10:24:40;;;;;;;9.55;6.63;;;19.00;89.30;;;19.42;51.79;98955.34;5063141;28;20784;-81
2022/11/08 10:27:38;;;;;;;11.05;6.85;;;19.10;89.60;;;19.42;52.03;98951.78;5052877;28;20068;-81
2022/11/08 10:30:14;;;;;;;9.73;6.32;;;19.10;89.20;;;19.44;51.65;98960.53;5034052;28;20090;-81
2022/11/08 10:32:40;;;;;;;7.57;5.78;;;19.10;89.20;;;19.45;51.56;98949.19;5047969;28;20037;-81
2022/11/08 10:35:37;;;;;;;9.23;5.95;;;19.10;89.20;;;19.45;51.67;98951.94;5049587;28;20108;-81
2022/11/08 10:38:07;;;;;;;8.07;5.70;;;19.10;89.30;;;19.45;51.74;98937.38;5059863;28;20515;-81